sensor_id;sensor_type;location;lat;lon;timestamp;pressure;altitude;pressure_sealevel;temperature;humidity
74466;BME280;62916;50.044;15.938;2023-11-21T00:00:34;98424.91;;;21.07;51.72
74466;BME280;62916;50.044;15.938;2023-11-21T00:03:05;98422.40;;;21.06;51.71
74466;BME280;62916;50.044;15.938;2023-11-21T00:05:36;98422.44;;;21.05;51.57
74466;BME280;62916;50.044;15.938;2023-11-21T00:08:08;98424.96;;;21.04;51.79
74466;BME280;62916;50.044;15.938;2023-11-21T00:10:40;98425.92;;;21.02;51.67
74466;BME280;62916;50.044;15.938;2023-11-21T00:13:11;98428.38;;;21.01;51.67
74466;BME280;62916;50.044;15.938;2023-11-21T00:15:43;98430.77;;;20.99;51.86
74466;BME280;62916;50.044;15.938;2023-11-21T00:18:14;98425.30;;;20.97;51.68
74466;BME280;62916;50.044;15.938;2023-11-21T00:20:46;98424.35;;;20.95;51.72
74466;BME280;62916;50.044;15.938;2023-11-21T00:23:17;98421.04;;;20.93;51.85
74466;BME280;62916;50.044;15.938;2023-11-21T00:25:48;98422.83;;;20.91;51.75
74466;BME280;62916;50.044;15.938;2023-11-21T00:28:18;98422.33;;;20.87;51.86
74466;BME280;62916;50.044;15.938;2023-11-21T00:30:49;98422.73;;;20.85;51.77
74466;BME280;62916;50.044;15.938;2023-11-21T00:33:20;98432.33;;;20.85;51.79
74466;BME280;62916;50.044;15.938;2023-11-21T00:35:51;98434.63;;;20.82;51.91
74466;BME280;62916;50.044;15.938;2023-11-21T00:38:22;98433.03;;;20.79;51.84
74466;BME280;62916;50.044;15.938;2023-11-21T00:40:54;98436.89;;;20.77;51.82
74466;BME280;62916;50.044;15.938;2023-11-21T00:43:26;98435.19;;;20.75;51.86
74466;BME280;62916;50.044;15.938;2023-11-21T00:45:57;98433.08;;;20.73;51.88
74466;BME280;62916;50.044;15.938;2023-11-21T00:48:27;98429.77;;;20.70;51.93
74466;BME280;62916;50.044;15.938;2023-11-21T00:50:58;98428.54;;;20.68;51.94
74466;BME280;62916;50.044;15.938;2023-11-21T00:53:30;98427.89;;;20.66;51.91
74466;BME280;62916;50.044;15.938;2023-11-21T00:56:01;98427.05;;;20.63;52.01
74466;BME280;62916;50.044;15.938;2023-11-21T00:58:32;98423.54;;;20.60;51.89
74466;BME280;62916;50.044;15.938;2023-11-21T01:01:03;98424.02;;;20.56;51.98
74466;BME280;62916;50.044;15.938;2023-11-21T01:03:34;98422.41;;;20.53;51.96
74466;BME280;62916;50.044;15.938;2023-11-21T01:06:05;98426.59;;;20.51;52.02
74466;BME280;62916;50.044;15.938;2023-11-21T01:08:38;98430.84;;;20.49;52.00
74466;BME280;62916;50.044;15.938;2023-11-21T01:11:09;98437.34;;;20.46;52.06
74466;BME280;62916;50.044;15.938;2023-11-21T01:13:42;98435.38;;;20.43;52.17
74466;BME280;62916;50.044;15.938;2023-11-21T01:16:14;98433.19;;;20.42;52.09
74466;BME280;62916;50.044;15.938;2023-11-21T01:18:45;98424.45;;;20.39;52.10
74466;BME280;62916;50.044;15.938;2023-11-21T01:21:16;98420.87;;;20.36;52.16
74466;BME280;62916;50.044;15.938;2023-11-21T01:23:47;98415.94;;;20.32;52.18
74466;BME280;62916;50.044;15.938;2023-11-21T01:26:18;98416.98;;;20.29;52.32
74466;BME280;62916;50.044;15.938;2023-11-21T01:28:49;98418.52;;;20.25;52.29
74466;BME280;62916;50.044;15.938;2023-11-21T01:31:20;98421.61;;;20.22;52.27
74466;BME280;62916;50.044;15.938;2023-11-21T01:33:52;98426.26;;;20.20;52.37
74466;BME280;62916;50.044;15.938;2023-11-21T01:36:23;98428.86;;;20.17;52.40
74466;BME280;62916;50.044;15.938;2023-11-21T01:38:54;98432.45;;;20.16;52.49
74466;BME280;62916;50.044;15.938;2023-11-21T01:41:25;98437.63;;;20.15;52.59
74466;BME280;62916;50.044;15.938;2023-11-21T01:43:56;98436.84;;;20.13;52.53
74466;BME280;62916;50.044;15.938;2023-11-21T01:46:27;98433.08;;;20.12;52.54
74466;BME280;62916;50.044;15.938;2023-11-21T01:48:59;98434.30;;;20.11;52.53
74466;BME280;62916;50.044;15.938;2023-11-21T01:51:30;98436.51;;;20.08;52.55
74466;BME280;62916;50.044;15.938;2023-11-21T01:54:01;98435.15;;;20.07;52.73
74466;BME280;62916;50.044;15.938;2023-11-21T01:56:45;98434.67;;;20.05;52.70
74466;BME280;62916;50.044;15.938;2023-11-21T01:59:20;98434.02;;;20.03;52.53
74466;BME280;62916;50.044;15.938;2023-11-21T02:01:51;98432.63;;;20.00;52.74
74466;BME280;62916;50.044;15.938;2023-11-21T02:04:22;98430.63;;;19.99;52.74
74466;BME280;62916;50.044;15.938;2023-11-21T02:06:53;98429.49;;;19.98;52.67
74466;BME280;62916;50.044;15.938;2023-11-21T02:09:27;98430.90;;;19.97;52.87
74466;BME280;62916;50.044;15.938;2023-11-21T02:11:59;98429.42;;;19.94;52.78
74466;BME280;62916;50.044;15.938;2023-11-21T02:14:32;98431.11;;;19.92;52.77
74466;BME280;62916;50.044;15.938;2023-11-21T02:17:03;98430.44;;;19.90;52.77
74466;BME280;62916;50.044;15.938;2023-11-21T02:19:34;98432.52;;;19.88;52.79
74466;BME280;62916;50.044;15.938;2023-11-21T02:22:06;98432.36;;;19.86;52.82
74466;BME280;62916;50.044;15.938;2023-11-21T02:24:37;98435.32;;;19.84;52.90
74466;BME280;62916;50.044;15.938;2023-11-21T02:27:08;98431.18;;;19.81;52.87
74466;BME280;62916;50.044;15.938;2023-11-21T02:29:39;98433.80;;;19.80;52.89
74466;BME280;62916;50.044;15.938;2023-11-21T02:32:10;98435.84;;;19.78;53.02
74466;BME280;62916;50.044;15.938;2023-11-21T02:34:41;98432.99;;;19.75;53.08
74466;BME280;62916;50.044;15.938;2023-11-21T02:37:13;98435.59;;;19.74;53.12
74466;BME280;62916;50.044;15.938;2023-11-21T02:39:45;98432.62;;;19.72;53.03
74466;BME280;62916;50.044;15.938;2023-11-21T02:42:16;98432.81;;;19.71;53.19
74466;BME280;62916;50.044;15.938;2023-11-21T02:44:47;98427.16;;;19.71;53.17
74466;BME280;62916;50.044;15.938;2023-11-21T02:47:18;98427.21;;;19.68;53.12
74466;BME280;62916;50.044;15.938;2023-11-21T02:49:49;98426.08;;;19.67;53.23
74466;BME280;62916;50.044;15.938;2023-11-21T02:52:21;98429.52;;;19.65;53.20
74466;BME280;62916;50.044;15.938;2023-11-21T02:54:53;98428.75;;;19.63;53.25
74466;BME280;62916;50.044;15.938;2023-11-21T02:57:24;98431.42;;;19.62;53.24
74466;BME280;62916;50.044;15.938;2023-11-21T02:59:55;98432.45;;;19.62;53.35
74466;BME280;62916;50.044;15.938;2023-11-21T03:02:26;98432.32;;;19.61;53.29
74466;BME280;62916;50.044;15.938;2023-11-21T03:04:57;98431.79;;;19.60;53.19
74466;BME280;62916;50.044;15.938;2023-11-21T03:07:28;98428.21;;;19.59;53.50
74466;BME280;62916;50.044;15.938;2023-11-21T03:10:00;98429.27;;;19.58;53.33
74466;BME280;62916;50.044;15.938;2023-11-21T03:12:30;98427.11;;;19.56;53.33
74466;BME280;62916;50.044;15.938;2023-11-21T03:15:01;98430.65;;;19.55;53.28
74466;BME280;62916;50.044;15.938;2023-11-21T03:17:32;98438.31;;;19.53;53.29
74466;BME280;62916;50.044;15.938;2023-11-21T03:20:06;98437.77;;;19.52;53.39
74466;BME280;62916;50.044;15.938;2023-11-21T03:22:41;98437.60;;;19.50;53.42
74466;BME280;62916;50.044;15.938;2023-11-21T03:25:12;98437.23;;;19.49;53.41
74466;BME280;62916;50.044;15.938;2023-11-21T03:27:43;98436.26;;;19.47;53.33
74466;BME280;62916;50.044;15.938;2023-11-21T03:30:15;98440.90;;;19.46;53.36
74466;BME280;62916;50.044;15.938;2023-11-21T03:32:46;98445.06;;;19.45;53.45
74466;BME280;62916;50.044;15.938;2023-11-21T03:35:17;98449.20;;;19.44;53.52
74466;BME280;62916;50.044;15.938;2023-11-21T03:37:50;98439.81;;;19.41;53.52
74466;BME280;62916;50.044;15.938;2023-11-21T03:40:21;98443.65;;;19.43;53.40
74466;BME280;62916;50.044;15.938;2023-11-21T03:42:52;98447.33;;;19.40;53.46
74466;BME280;62916;50.044;15.938;2023-11-21T03:45:23;98450.53;;;19.38;53.67
74466;BME280;62916;50.044;15.938;2023-11-21T03:47:53;98451.65;;;19.37;53.54
74466;BME280;62916;50.044;15.938;2023-11-21T03:50:25;98452.94;;;19.35;53.61
74466;BME280;62916;50.044;15.938;2023-11-21T03:52:56;98455.91;;;19.34;53.65
74466;BME280;62916;50.044;15.938;2023-11-21T03:55:28;98459.09;;;19.33;53.71
74466;BME280;62916;50.044;15.938;2023-11-21T03:58:00;98457.41;;;19.31;53.68
74466;BME280;62916;50.044;15.938;2023-11-21T04:00:32;98457.66;;;19.30;53.71
74466;BME280;62916;50.044;15.938;2023-11-21T04:03:03;98454.61;;;19.28;53.78
74466;BME280;62916;50.044;15.938;2023-11-21T04:05:34;98458.09;;;19.27;53.81
74466;BME280;62916;50.044;15.938;2023-11-21T04:08:05;98461.02;;;19.27;53.84
74466;BME280;62916;50.044;15.938;2023-11-21T04:10:36;98461.89;;;19.24;53.85
74466;BME280;62916;50.044;15.938;2023-11-21T04:13:09;98460.23;;;19.23;53.94
74466;BME280;62916;50.044;15.938;2023-11-21T04:15:40;98463.61;;;19.22;53.92
74466;BME280;62916;50.044;15.938;2023-11-21T04:18:10;98462.41;;;19.20;53.86
74466;BME280;62916;50.044;15.938;2023-11-21T04:20:41;98461.95;;;19.19;53.89
74466;BME280;62916;50.044;15.938;2023-11-21T04:23:13;98462.27;;;19.17;54.04
74466;BME280;62916;50.044;15.938;2023-11-21T04:25:44;98462.59;;;19.16;54.00
74466;BME280;62916;50.044;15.938;2023-11-21T04:28:15;98458.42;;;19.14;54.11
74466;BME280;62916;50.044;15.938;2023-11-21T04:30:47;98459.91;;;19.13;54.12
74466;BME280;62916;50.044;15.938;2023-11-21T04:33:18;98457.44;;;19.12;54.14
74466;BME280;62916;50.044;15.938;2023-11-21T04:35:48;98456.81;;;19.12;54.26
74466;BME280;62916;50.044;15.938;2023-11-21T04:38:19;98455.55;;;19.13;54.25
74466;BME280;62916;50.044;15.938;2023-11-21T04:40:51;98462.55;;;19.13;54.27
74466;BME280;62916;50.044;15.938;2023-11-21T04:43:22;98461.04;;;19.13;54.28
74466;BME280;62916;50.044;15.938;2023-11-21T04:45:52;98465.20;;;19.13;54.30
74466;BME280;62916;50.044;15.938;2023-11-21T04:48:23;98470.68;;;19.14;54.38
74466;BME280;62916;50.044;15.938;2023-11-21T04:50:54;98469.16;;;19.16;54.34
74466;BME280;62916;50.044;15.938;2023-11-21T04:53:25;98470.39;;;19.16;54.28
74466;BME280;62916;50.044;15.938;2023-11-21T04:55:58;98472.44;;;19.17;54.20
74466;BME280;62916;50.044;15.938;2023-11-21T04:58:30;98476.39;;;19.17;54.19
74466;BME280;62916;50.044;15.938;2023-11-21T05:01:02;98478.40;;;19.17;54.33
74466;BME280;62916;50.044;15.938;2023-11-21T05:03:37;98475.09;;;19.17;54.33
74466;BME280;62916;50.044;15.938;2023-11-21T05:06:10;98475.98;;;19.17;54.36
74466;BME280;62916;50.044;15.938;2023-11-21T05:08:41;98476.39;;;19.19;54.44
74466;BME280;62916;50.044;15.938;2023-11-21T05:11:12;98471.84;;;19.19;54.41
74466;BME280;62916;50.044;15.938;2023-11-21T05:13:44;98470.58;;;19.20;54.53
74466;BME280;62916;50.044;15.938;2023-11-21T05:16:15;98474.42;;;19.21;54.57
74466;BME280;62916;50.044;15.938;2023-11-21T05:18:46;98478.27;;;19.21;54.46
74466;BME280;62916;50.044;15.938;2023-11-21T05:21:20;98481.30;;;19.21;54.40
74466;BME280;62916;50.044;15.938;2023-11-21T05:23:50;98486.23;;;19.21;54.29
74466;BME280;62916;50.044;15.938;2023-11-21T05:26:21;98484.50;;;19.20;54.04
74466;BME280;62916;50.044;15.938;2023-11-21T05:28:52;98484.77;;;19.21;53.82
74466;BME280;62916;50.044;15.938;2023-11-21T05:31:23;98489.34;;;19.20;53.81
74466;BME280;62916;50.044;15.938;2023-11-21T05:33:55;98493.97;;;19.22;53.73
74466;BME280;62916;50.044;15.938;2023-11-21T05:36:26;98494.27;;;19.21;53.77
74466;BME280;62916;50.044;15.938;2023-11-21T05:38:57;98493.60;;;19.21;53.83
74466;BME280;62916;50.044;15.938;2023-11-21T05:41:28;98496.31;;;19.20;53.81
74466;BME280;62916;50.044;15.938;2023-11-21T05:44:00;98494.25;;;19.19;53.78
74466;BME280;62916;50.044;15.938;2023-11-21T05:46:32;98493.98;;;19.19;53.73
74466;BME280;62916;50.044;15.938;2023-11-21T05:49:03;98502.88;;;19.18;53.74
74466;BME280;62916;50.044;15.938;2023-11-21T05:51:33;98506.05;;;19.18;53.71
74466;BME280;62916;50.044;15.938;2023-11-21T05:54:05;98506.57;;;19.17;53.69
74466;BME280;62916;50.044;15.938;2023-11-21T05:56:37;98510.14;;;19.16;53.63
74466;BME280;62916;50.044;15.938;2023-11-21T05:59:08;98510.17;;;19.15;53.62
74466;BME280;62916;50.044;15.938;2023-11-21T06:01:39;98510.04;;;19.14;53.63
74466;BME280;62916;50.044;15.938;2023-11-21T06:04:10;98507.66;;;19.13;53.62
74466;BME280;62916;50.044;15.938;2023-11-21T06:06:42;98510.45;;;19.12;53.70
74466;BME280;62916;50.044;15.938;2023-11-21T06:09:13;98505.52;;;19.11;53.62
74466;BME280;62916;50.044;15.938;2023-11-21T06:11:44;98506.89;;;19.10;53.57
74466;BME280;62916;50.044;15.938;2023-11-21T06:14:15;98512.05;;;19.09;53.52
74466;BME280;62916;50.044;15.938;2023-11-21T06:16:48;98511.08;;;19.07;53.51
74466;BME280;62916;50.044;15.938;2023-11-21T06:19:20;98511.73;;;19.06;53.56
74466;BME280;62916;50.044;15.938;2023-11-21T06:21:51;98512.02;;;19.05;53.51
74466;BME280;62916;50.044;15.938;2023-11-21T06:24:22;98517.77;;;19.05;53.51
74466;BME280;62916;50.044;15.938;2023-11-21T06:26:53;98518.99;;;19.03;53.41
74466;BME280;62916;50.044;15.938;2023-11-21T06:29:24;98522.66;;;19.01;53.44
74466;BME280;62916;50.044;15.938;2023-11-21T06:31:56;98521.27;;;18.99;53.50
74466;BME280;62916;50.044;15.938;2023-11-21T06:34:30;98522.25;;;18.98;53.42
74466;BME280;62916;50.044;15.938;2023-11-21T06:37:01;98523.34;;;18.97;53.48
74466;BME280;62916;50.044;15.938;2023-11-21T06:39:32;98525.71;;;18.97;53.47
74466;BME280;62916;50.044;15.938;2023-11-21T06:42:03;98524.27;;;18.95;53.47
74466;BME280;62916;50.044;15.938;2023-11-21T06:44:34;98522.92;;;18.94;53.51
74466;BME280;62916;50.044;15.938;2023-11-21T06:47:07;98525.00;;;18.94;53.44
74466;BME280;62916;50.044;15.938;2023-11-21T06:49:38;98528.48;;;18.93;53.41
74466;BME280;62916;50.044;15.938;2023-11-21T06:52:09;98532.91;;;18.91;53.40
74466;BME280;62916;50.044;15.938;2023-11-21T06:54:40;98532.54;;;18.90;53.33
74466;BME280;62916;50.044;15.938;2023-11-21T06:57:11;98531.90;;;18.89;53.39
74466;BME280;62916;50.044;15.938;2023-11-21T06:59:42;98531.48;;;18.87;53.34
74466;BME280;62916;50.044;15.938;2023-11-21T07:02:13;98532.24;;;18.86;53.35
74466;BME280;62916;50.044;15.938;2023-11-21T07:04:48;98531.40;;;18.84;53.27
74466;BME280;62916;50.044;15.938;2023-11-21T07:07:19;98538.98;;;18.83;53.57
74466;BME280;62916;50.044;15.938;2023-11-21T07:09:50;98539.57;;;18.84;53.44
74466;BME280;62916;50.044;15.938;2023-11-21T07:12:21;98539.67;;;18.82;53.36
74466;BME280;62916;50.044;15.938;2023-11-21T07:14:53;98539.11;;;18.81;53.41
74466;BME280;62916;50.044;15.938;2023-11-21T07:17:24;98538.98;;;18.79;53.39
74466;BME280;62916;50.044;15.938;2023-11-21T07:19:55;98541.00;;;18.79;53.35
74466;BME280;62916;50.044;15.938;2023-11-21T07:22:26;98539.98;;;18.74;53.34
74466;BME280;62916;50.044;15.938;2023-11-21T07:24:57;98543.59;;;18.74;53.33
74466;BME280;62916;50.044;15.938;2023-11-21T07:27:27;98546.11;;;18.74;53.41
74466;BME280;62916;50.044;15.938;2023-11-21T07:29:58;98550.76;;;18.73;53.29
74466;BME280;62916;50.044;15.938;2023-11-21T07:32:30;98547.73;;;18.69;53.46
74466;BME280;62916;50.044;15.938;2023-11-21T07:35:01;98550.02;;;18.69;53.35
74466;BME280;62916;50.044;15.938;2023-11-21T07:37:32;98546.67;;;18.68;53.33
74466;BME280;62916;50.044;15.938;2023-11-21T07:40:04;98553.33;;;18.67;53.29
74466;BME280;62916;50.044;15.938;2023-11-21T07:42:38;98558.38;;;18.65;53.40
74466;BME280;62916;50.044;15.938;2023-11-21T07:45:11;98556.95;;;18.64;53.49
74466;BME280;62916;50.044;15.938;2023-11-21T07:47:42;98560.61;;;18.64;53.43
74466;BME280;62916;50.044;15.938;2023-11-21T07:50:14;98563.29;;;18.62;53.45
74466;BME280;62916;50.044;15.938;2023-11-21T07:52:45;98566.56;;;18.62;53.35
74466;BME280;62916;50.044;15.938;2023-11-21T07:55:16;98567.75;;;18.62;53.43
74466;BME280;62916;50.044;15.938;2023-11-21T07:57:47;98567.86;;;18.62;53.50
74466;BME280;62916;50.044;15.938;2023-11-21T08:00:19;98567.52;;;18.62;53.50
74466;BME280;62916;50.044;15.938;2023-11-21T08:02:50;98568.73;;;18.62;53.48
74466;BME280;62916;50.044;15.938;2023-11-21T08:05:21;98567.81;;;18.61;53.44
74466;BME280;62916;50.044;15.938;2023-11-21T08:08:03;98571.55;;;18.64;53.48
74466;BME280;62916;50.044;15.938;2023-11-21T08:10:34;98567.02;;;18.63;53.50
74466;BME280;62916;50.044;15.938;2023-11-21T08:13:05;98567.81;;;18.65;53.48
74466;BME280;62916;50.044;15.938;2023-11-21T08:15:38;98570.98;;;18.64;53.33
74466;BME280;62916;50.044;15.938;2023-11-21T08:18:10;98571.54;;;18.64;53.37
74466;BME280;62916;50.044;15.938;2023-11-21T08:20:41;98571.71;;;18.62;53.33
74466;BME280;62916;50.044;15.938;2023-11-21T08:23:12;98572.80;;;18.62;53.35
74466;BME280;62916;50.044;15.938;2023-11-21T08:25:45;98576.30;;;18.61;53.33
74466;BME280;62916;50.044;15.938;2023-11-21T08:28:17;98581.39;;;18.60;53.31
74466;BME280;62916;50.044;15.938;2023-11-21T08:30:48;98581.17;;;18.59;53.17
74466;BME280;62916;50.044;15.938;2023-11-21T08:33:19;98578.56;;;18.58;53.19
74466;BME280;62916;50.044;15.938;2023-11-21T08:35:50;98583.24;;;18.58;53.27
74466;BME280;62916;50.044;15.938;2023-11-21T08:38:21;98579.10;;;18.56;53.23
74466;BME280;62916;50.044;15.938;2023-11-21T08:40:52;98582.96;;;18.54;53.17
74466;BME280;62916;50.044;15.938;2023-11-21T08:43:23;98583.51;;;18.53;53.26
74466;BME280;62916;50.044;15.938;2023-11-21T08:45:57;98581.56;;;18.52;53.28
74466;BME280;62916;50.044;15.938;2023-11-21T08:48:27;98584.55;;;18.52;53.35
74466;BME280;62916;50.044;15.938;2023-11-21T08:51:00;98584.21;;;18.52;53.28
74466;BME280;62916;50.044;15.938;2023-11-21T08:53:30;98587.15;;;18.51;53.22
74466;BME280;62916;50.044;15.938;2023-11-21T08:56:02;98589.30;;;18.51;53.27
74466;BME280;62916;50.044;15.938;2023-11-21T08:58:33;98589.20;;;18.51;53.29
74466;BME280;62916;50.044;15.938;2023-11-21T09:01:07;98589.69;;;18.51;53.33
74466;BME280;62916;50.044;15.938;2023-11-21T09:03:37;98590.73;;;18.50;53.34
74466;BME280;62916;50.044;15.938;2023-11-21T09:06:11;98590.45;;;18.49;53.29
74466;BME280;62916;50.044;15.938;2023-11-21T09:08:43;98591.77;;;18.48;53.19
74466;BME280;62916;50.044;15.938;2023-11-21T09:11:14;98593.92;;;18.48;53.24
74466;BME280;62916;50.044;15.938;2023-11-21T09:13:45;98597.03;;;18.46;53.23
74466;BME280;62916;50.044;15.938;2023-11-21T09:16:16;98603.02;;;18.45;53.20
74466;BME280;62916;50.044;15.938;2023-11-21T09:18:47;98600.60;;;18.45;53.23
74466;BME280;62916;50.044;15.938;2023-11-21T09:21:18;98605.73;;;18.44;53.22
74466;BME280;62916;50.044;15.938;2023-11-21T09:23:49;98610.02;;;18.43;53.23
74466;BME280;62916;50.044;15.938;2023-11-21T09:26:20;98616.14;;;18.42;53.22
74466;BME280;62916;50.044;15.938;2023-11-21T09:28:51;98617.56;;;18.41;53.24
74466;BME280;62916;50.044;15.938;2023-11-21T09:31:23;98619.05;;;18.40;53.25
74466;BME280;62916;50.044;15.938;2023-11-21T09:33:54;98610.92;;;18.39;53.27
74466;BME280;62916;50.044;15.938;2023-11-21T09:36:24;98612.08;;;18.38;53.21
74466;BME280;62916;50.044;15.938;2023-11-21T09:38:57;98615.47;;;18.36;53.25
74466;BME280;62916;50.044;15.938;2023-11-21T09:41:37;98615.04;;;18.36;53.25
74466;BME280;62916;50.044;15.938;2023-11-21T09:44:13;98614.72;;;18.35;53.26
74466;BME280;62916;50.044;15.938;2023-11-21T09:46:44;98615.54;;;18.33;53.23
74466;BME280;62916;50.044;15.938;2023-11-21T09:49:20;98618.34;;;18.34;53.31
74466;BME280;62916;50.044;15.938;2023-11-21T09:51:56;98620.75;;;18.34;53.39
74466;BME280;62916;50.044;15.938;2023-11-21T09:54:27;98621.58;;;18.34;53.36
74466;BME280;62916;50.044;15.938;2023-11-21T09:56:58;98623.37;;;18.35;53.24
74466;BME280;62916;50.044;15.938;2023-11-21T09:59:31;98623.50;;;18.34;53.27
74466;BME280;62916;50.044;15.938;2023-11-21T10:02:03;98624.86;;;18.34;53.23
74466;BME280;62916;50.044;15.938;2023-11-21T10:04:35;98624.29;;;18.34;53.29
74466;BME280;62916;50.044;15.938;2023-11-21T10:07:07;98618.37;;;18.31;53.20
74466;BME280;62916;50.044;15.938;2023-11-21T10:09:39;98625.41;;;18.34;53.31
74466;BME280;62916;50.044;15.938;2023-11-21T10:12:11;98623.52;;;18.33;53.19
74466;BME280;62916;50.044;15.938;2023-11-21T10:14:43;98623.48;;;18.32;53.17
74466;BME280;62916;50.044;15.938;2023-11-21T10:17:14;98618.84;;;18.32;53.26
74466;BME280;62916;50.044;15.938;2023-11-21T10:19:48;98618.29;;;18.32;53.21
74466;BME280;62916;50.044;15.938;2023-11-21T10:22:20;98621.78;;;18.32;53.20
74466;BME280;62916;50.044;15.938;2023-11-21T10:24:53;98622.27;;;18.30;53.15
74466;BME280;62916;50.044;15.938;2023-11-21T10:27:24;98620.31;;;18.30;53.18
74466;BME280;62916;50.044;15.938;2023-11-21T10:29:57;98618.25;;;18.29;53.20
74466;BME280;62916;50.044;15.938;2023-11-21T10:32:30;98621.41;;;18.28;53.14
74466;BME280;62916;50.044;15.938;2023-11-21T10:35:02;98625.36;;;18.27;53.10
74466;BME280;62916;50.044;15.938;2023-11-21T10:37:36;98624.70;;;18.27;53.09
74466;BME280;62916;50.044;15.938;2023-11-21T10:40:10;98625.16;;;18.26;53.19
74466;BME280;62916;50.044;15.938;2023-11-21T10:42:42;98625.05;;;18.26;53.19
74466;BME280;62916;50.044;15.938;2023-11-21T10:45:13;98623.48;;;18.25;53.23
74466;BME280;62916;50.044;15.938;2023-11-21T10:47:45;98625.80;;;18.25;53.22
74466;BME280;62916;50.044;15.938;2023-11-21T10:50:19;98625.66;;;18.24;53.16
74466;BME280;62916;50.044;15.938;2023-11-21T10:52:50;98629.85;;;18.23;53.16
74466;BME280;62916;50.044;15.938;2023-11-21T10:55:21;98629.65;;;18.22;53.13
74466;BME280;62916;50.044;15.938;2023-11-21T10:57:55;98627.50;;;18.21;53.14
74466;BME280;62916;50.044;15.938;2023-11-21T11:00:28;98628.98;;;18.20;53.18
74466;BME280;62916;50.044;15.938;2023-11-21T11:03:00;98629.33;;;18.19;53.25
74466;BME280;62916;50.044;15.938;2023-11-21T11:05:31;98633.86;;;18.20;53.13
74466;BME280;62916;50.044;15.938;2023-11-21T11:08:05;98633.98;;;18.19;53.20
74466;BME280;62916;50.044;15.938;2023-11-21T11:10:38;98635.15;;;18.20;53.26
74466;BME280;62916;50.044;15.938;2023-11-21T11:13:09;98634.58;;;18.20;53.11
74466;BME280;62916;50.044;15.938;2023-11-21T11:15:41;98632.51;;;18.20;53.19
74466;BME280;62916;50.044;15.938;2023-11-21T11:18:13;98628.30;;;18.19;53.11
74466;BME280;62916;50.044;15.938;2023-11-21T11:20:46;98626.29;;;18.19;53.23
74466;BME280;62916;50.044;15.938;2023-11-21T11:23:24;98625.77;;;18.20;53.20
74466;BME280;62916;50.044;15.938;2023-11-21T11:26:12;98622.46;;;18.17;53.10
74466;BME280;62916;50.044;15.938;2023-11-21T11:28:51;98621.30;;;18.16;53.24
74466;BME280;62916;50.044;15.938;2023-11-21T11:31:31;98620.33;;;18.15;53.02
74466;BME280;62916;50.044;15.938;2023-11-21T11:34:14;98619.61;;;18.16;53.21
74466;BME280;62916;50.044;15.938;2023-11-21T11:36:51;98623.48;;;18.16;53.15
74466;BME280;62916;50.044;15.938;2023-11-21T11:39:34;98622.42;;;18.16;53.15
74466;BME280;62916;50.044;15.938;2023-11-21T11:42:06;98617.60;;;18.16;53.17
74466;BME280;62916;50.044;15.938;2023-11-21T11:44:51;98617.08;;;18.14;53.13
74466;BME280;62916;50.044;15.938;2023-11-21T11:47:25;98618.27;;;18.15;53.19
74466;BME280;62916;50.044;15.938;2023-11-21T11:50:03;98623.20;;;18.17;53.26
74466;BME280;62916;50.044;15.938;2023-11-21T11:52:39;98623.46;;;18.17;53.15
74466;BME280;62916;50.044;15.938;2023-11-21T11:55:11;98623.51;;;18.18;53.10
74466;BME280;62916;50.044;15.938;2023-11-21T11:57:44;98626.27;;;18.20;53.11
74466;BME280;62916;50.044;15.938;2023-11-21T12:00:18;98625.85;;;18.21;53.15
74466;BME280;62916;50.044;15.938;2023-11-21T12:02:52;98623.73;;;18.22;53.15
74466;BME280;62916;50.044;15.938;2023-11-21T12:05:23;98621.45;;;18.23;53.14
74466;BME280;62916;50.044;15.938;2023-11-21T12:07:56;98618.88;;;18.26;53.19
74466;BME280;62916;50.044;15.938;2023-11-21T12:10:28;98617.73;;;18.27;53.24
74466;BME280;62916;50.044;15.938;2023-11-21T12:13:03;98617.57;;;18.29;53.12
74466;BME280;62916;50.044;15.938;2023-11-21T12:15:35;98617.77;;;18.32;53.03
74466;BME280;62916;50.044;15.938;2023-11-21T12:18:08;98620.83;;;18.35;53.03
74466;BME280;62916;50.044;15.938;2023-11-21T12:20:39;98621.69;;;18.37;52.97
74466;BME280;62916;50.044;15.938;2023-11-21T12:23:12;98623.39;;;18.39;52.99
74466;BME280;62916;50.044;15.938;2023-11-21T12:25:45;98619.26;;;18.38;52.99
74466;BME280;62916;50.044;15.938;2023-11-21T12:28:15;98621.64;;;18.43;52.99
74466;BME280;62916;50.044;15.938;2023-11-21T12:30:47;98626.45;;;18.44;52.95
74466;BME280;62916;50.044;15.938;2023-11-21T12:33:18;98626.63;;;18.46;52.92
74466;BME280;62916;50.044;15.938;2023-11-21T12:35:49;98625.70;;;18.48;52.86
74466;BME280;62916;50.044;15.938;2023-11-21T12:38:21;98622.55;;;18.50;52.84
74466;BME280;62916;50.044;15.938;2023-11-21T12:40:55;98622.59;;;18.53;52.87
74466;BME280;62916;50.044;15.938;2023-11-21T12:43:26;98620.66;;;18.56;52.83
74466;BME280;62916;50.044;15.938;2023-11-21T12:46:07;98624.19;;;18.58;52.78
74466;BME280;62916;50.044;15.938;2023-11-21T12:48:40;98626.14;;;18.61;52.84
74466;BME280;62916;50.044;15.938;2023-11-21T12:51:13;98624.08;;;18.64;52.81
74466;BME280;62916;50.044;15.938;2023-11-21T12:53:46;98624.75;;;18.64;52.78
74466;BME280;62916;50.044;15.938;2023-11-21T12:56:17;98626.97;;;18.68;52.88
74466;BME280;62916;50.044;15.938;2023-11-21T12:58:49;98625.24;;;18.70;52.74
74466;BME280;62916;50.044;15.938;2023-11-21T13:01:21;98623.67;;;18.72;52.80
74466;BME280;62916;50.044;15.938;2023-11-21T13:03:58;98625.89;;;18.74;52.76
74466;BME280;62916;50.044;15.938;2023-11-21T13:06:29;98623.64;;;18.78;52.72
74466;BME280;62916;50.044;15.938;2023-11-21T13:09:08;98620.51;;;18.79;52.67
74466;BME280;62916;50.044;15.938;2023-11-21T13:11:40;98624.72;;;18.82;52.70
74466;BME280;62916;50.044;15.938;2023-11-21T13:14:11;98629.68;;;18.83;52.73